KC0AFB Weather Reports


Display with metric or nautical units.
time (UTC)temp
F
wind
direction
speed
MPH
gust
MPH
rain 1hr
in
rain 24hr
in
rain mn
in
humidity
%
barometer
mb
20240717234929 79 156 1.0 1.0 0.00 0.00 0.00 52 1022.4
20240717234427 79 6 3.0 3.0 0.00 0.00 0.00 50 1022.0
20240717233925 79 126 2.0 2.0 0.00 0.00 0.00 51 1022.4
20240717233424 78 82 2.0 2.0 0.00 0.00 0.00 52 1022.0
20240717232923 78 106 3.0 3.0 0.00 0.00 0.00 53 1022.3
20240717232422 79 50 3.0 3.0 0.00 0.00 0.00 53 1022.3
20240717231921 79 56 2.0 2.0 0.00 0.00 0.00 54 1022.4
20240717231420 78 28 2.0 2.0 0.00 0.00 0.00 52 1022.3
20240717230919 78 60 4.0 5.0 0.00 0.00 0.00 53 1022.3
20240717230417 79 19 2.0 2.0 0.00 0.00 0.00 53 1022.4
20240717225915 78 139 2.0 2.0 0.00 0.00 0.00 53 1022.3
20240717225415 78 77 2.0 3.0 0.00 0.00 0.00 55 1022.7
20240717224913 79 74 3.0 3.0 0.00 0.00 0.00 54 1022.6
20240717224411 78 151 1.0 1.0 0.00 0.00 0.00 54 1022.6
20240717223911 78 60 4.0 6.0 0.00 0.00 0.00 53 1022.5
20240717223411 79 69 3.0 5.0 0.00 0.00 0.00 55 1022.6
20240717222910 78 152 3.0 5.0 0.00 0.00 0.00 54 1022.6
20240717222410 80 156 2.0 2.0 0.00 0.00 0.00 51 1022.5
20240717221908 79 61 3.0 3.0 0.00 0.00 0.00 50 1022.8
20240717221405 80 48 2.0 2.0 0.00 0.00 0.00 49 1022.8
20240717220904 81 359 2.0 2.0 0.00 0.00 0.00 47 1022.7
20240717220403 81 165 2.0 2.0 0.00 0.00 0.00 50 1023.0
20240717215902 80 8 1.0 2.0 0.00 0.00 0.00 50 1022.9
20240717215400 80 304 3.0 5.0 0.00 0.00 0.00 50 1022.9
20240717214858 78 33 3.0 3.0 0.00 0.00 0.00 54 1022.9
20240717214357 79 57 2.0 2.0 0.00 0.00 0.00 53 1023.1
20240717213856 79 148 4.0 5.0 0.00 0.00 0.00 55 1023.0
20240717213355 80 175 2.0 3.0 0.00 0.00 0.00 54 1023.0
20240717212855 79 201 3.0 3.0 0.00 0.00 0.00 55 1023.1
20240717212353 78 137 1.0 1.0 0.00 0.00 0.00 57 1023.3
20240717211851 78 69 2.0 2.0 0.00 0.00 0.00 54 1023.3
20240717211349 80 177 7.0 8.0 0.00 0.00 0.00 53 1023.1
20240717210847 78 223 3.0 3.0 0.00 0.00 0.00 56 1023.2
20240717210345 79 226 4.0 5.0 0.00 0.00 0.00 55 1023.3
20240717205844 77 89 1.0 1.0 0.00 0.00 0.00 59 1023.3
20240717205343 78 119 3.0 3.0 0.00 0.00 0.00 58 1023.5
20240717204841 77 124 0.0 1.0 0.00 0.00 0.00 58 1023.3
20240717204339 76 45 3.0 3.0 0.00 0.00 0.00 60 1023.4
20240717203837 75 95 1.0 1.0 0.00 0.00 0.00 61 1023.4
20240717203335 75 155 4.0 5.0 0.00 0.00 0.00 63 1023.4
20240717202833 75 100 3.0 5.0 0.00 0.00 0.00 63 1023.5
20240717202331 75 71 4.0 5.0 0.00 0.00 0.00 62 1023.3
20240717201829 74 106 2.0 2.0 0.00 0.00 0.00 64 1023.7
20240717201328 73 97 8.0 8.0 0.00 0.00 0.00 64 1023.5
20240717200825 73 81 3.0 3.0 0.00 0.00 0.00 65 1023.5
20240717200324 74 118 1.0 1.0 0.00 0.00 0.00 64 1023.7
20240717195818 74 76 6.0 7.0 0.00 0.00 0.00 64 1023.5
20240717195316 74 130 3.0 3.0 0.00 0.00 0.00 65 1023.7
20240717194815 74 149 4.0 5.0 0.00 0.00 0.00 64 1023.7
20240717194313 75 139 5.0 6.0 0.00 0.00 0.00 63 1023.8
20240717193812 77 117 3.0 3.0 0.00 0.00 0.00 62 1023.6
20240717193310 76 175 4.0 6.0 0.00 0.00 0.00 62 1024.0
20240717192809 76 77 4.0 6.0 0.00 0.00 0.00 62 1024.0
20240717192309 77 124 7.0 8.0 0.00 0.00 0.00 61 1024.0
20240717191808 76 142 1.0 1.0 0.00 0.00 0.00 62 1024.1
20240717191306 75 177 3.0 3.0 0.00 0.00 0.00 64 1024.0
20240717190804 75 54 5.0 7.0 0.00 0.00 0.00 65 1024.0
20240717190303 75 58 5.0 6.0 0.00 0.00 0.00 65 1024.0
20240717185801 73 67 5.0 7.0 0.00 0.00 0.00 67 1024.2
20240717185300 75 77 3.0 5.0 0.00 0.00 0.00 65 1024.2
20240717184758 75 62 3.0 3.0 0.00 0.00 0.00 64 1024.3
20240717184256 75 147 1.0 1.0 0.00 0.00 0.00 62 1024.3
20240717183753 74 128 3.0 3.0 0.00 0.00 0.00 64 1024.2
20240717183252 74 205 4.0 5.0 0.00 0.00 0.00 64 1024.3
20240717182751 75 99 6.0 7.0 0.00 0.00 0.00 63 1024.1
20240717182250 73 117 1.0 2.0 0.00 0.00 0.00 65 1024.2
20240717181748 75 86 7.0 8.0 0.00 0.00 0.00 63 1024.4
20240717181248 74 140 4.0 5.0 0.00 0.00 0.00 65 1024.3
20240717180747 75 153 11.0 13.0 0.00 0.00 0.00 65 1024.3
20240717180245 73 98 1.0 1.0 0.00 0.00 0.00 67 1024.3
20240717175745 73 68 5.0 6.0 0.00 0.00 0.00 70 1024.1
20240717175243 73 117 3.0 3.0 0.00 0.00 0.00 67 1024.3
20240717174741 73 33 4.0 5.0 0.00 0.00 0.00 68 1024.4
20240717174241 73 102 5.0 6.0 0.00 0.00 0.00 66 1024.5
20240717173739 73 180 5.0 6.0 0.00 0.00 0.00 67 1024.5
20240717173238 72 135 2.0 2.0 0.00 0.00 0.00 67 1024.5
20240717172735 72 169 2.0 2.0 0.00 0.00 0.00 68 1024.5
20240717172232 72 127 1.0 1.0 0.00 0.00 0.00 67 1024.5
20240717171731 71 109 5.0 6.0 0.00 0.00 0.00 68 1024.3
20240717171230 72 77 5.0 6.0 0.00 0.00 0.00 68 1024.5
20240717170728 71 116 5.0 6.0 0.00 0.00 0.00 71 1024.6
20240717170227 71 140 3.0 3.0 0.00 0.00 0.00 69 1024.7
20240717165726 71 114 3.0 5.0 0.00 0.00 0.00 70 1024.6
20240717165226 71 179 7.0 9.0 0.00 0.00 0.00 69 1024.7
20240717164724 70 100 4.0 5.0 0.00 0.00 0.00 71 1024.7
20240717164223 71 72 5.0 7.0 0.00 0.00 0.00 70 1024.6
20240717163723 70 95 3.0 5.0 0.00 0.00 0.00 72 1024.4
20240717163221 70 73 3.0 3.0 0.00 0.00 0.00 72 1024.5
20240717162720 70 152 5.0 6.0 0.00 0.00 0.00 71 1024.6
20240717162220 70 123 3.0 3.0 0.00 0.00 0.00 71 1024.6
20240717161719 70 155 6.0 8.0 0.00 0.00 0.00 71 1024.7
20240717161218 69 133 3.0 3.0 0.00 0.00 0.00 72 1024.5
20240717160716 68 87 6.0 7.0 0.00 0.00 0.00 73 1024.7
20240717160214 68 91 6.0 8.0 0.00 0.00 0.00 74 1024.6
20240717155712 68 133 8.0 9.0 0.00 0.00 0.00 74 1024.8
20240717155211 67 107 6.0 7.0 0.00 0.00 0.00 75 1024.7
20240717154710 68 97 6.0 7.0 0.00 0.00 0.00 74 1024.8
20240717154210 68 102 7.0 8.0 0.00 0.00 0.00 75 1024.8
20240717153710 67 131 5.0 7.0 0.00 0.00 0.00 75 1024.7
20240717153208 66 115 5.0 6.0 0.00 0.00 0.00 77 1024.8
20240717152709 66 116 6.0 7.0 0.00 0.00 0.00 78 1024.9
20240717152207 65 96 9.0 10.0 0.00 0.00 0.00 78 1024.6
20240717151705 66 123 7.0 9.0 0.00 0.00 0.00 77 1024.8
20240717151203 66 134 7.0 9.0 0.00 0.00 0.00 77 1024.9
20240717150702 64 89 8.0 9.0 0.00 0.00 0.00 78 1024.6
20240717150200 65 107 9.0 11.0 0.00 0.00 0.00 78 1025.0
20240717145659 66 136 7.0 9.0 0.00 0.00 0.00 77 1024.8
20240717145158 64 96 7.0 8.0 0.00 0.00 0.00 78 1024.7
20240717144657 64 138 10.0 11.0 0.00 0.00 0.00 79 1024.9
20240717144155 64 109 9.0 10.0 0.00 0.00 0.00 79 1024.7
20240717143653 64 154 9.0 10.0 0.00 0.00 0.00 80 1024.7
20240717143152 64 77 7.0 7.0 0.00 0.00 0.00 80 1024.5
20240717142650 64 113 9.0 10.0 0.00 0.00 0.00 80 1024.7
20240717142148 63 86 7.0 9.0 0.00 0.00 0.00 81 1024.6
20240717141647 62 130 7.0 9.0 0.00 0.00 0.00 81 1024.7
20240717141146 62 92 7.0 8.0 0.00 0.00 0.00 82 1024.5
20240717140644 62 110 8.0 9.0 0.00 0.00 0.00 83 1024.8
20240717140143 61 111 5.0 7.0 0.00 0.00 0.00 85 1024.7
20240717135641 61 125 7.0 9.0 0.00 0.00 0.00 85 1024.7
20240717135140 62 115 7.0 8.0 0.00 0.00 0.00 85 1024.4
20240717134639 61 128 6.0 7.0 0.00 0.00 0.00 86 1024.7
20240717134138 61 129 8.0 9.0 0.00 0.00 0.00 86 1024.6
20240717133636 61 134 8.0 10.0 0.00 0.00 0.00 86 1024.6
20240717133134 61 146 9.0 9.0 0.00 0.00 0.00 86 1024.6
20240717132634 61 119 7.0 9.0 0.00 0.00 0.00 86 1024.4
20240717132132 60 112 9.0 13.0 0.00 0.00 0.00 86 1024.2
20240717131630 60 91 5.0 7.0 0.00 0.00 0.00 86 1024.2
20240717131129 60 131 9.0 11.0 0.00 0.00 0.00 86 1024.4
20240717130628 60 103 8.0 10.0 0.00 0.00 0.00 87 1024.2
20240717130124 60 117 7.0 8.0 0.00 0.00 0.00 88 1024.0
20240717125623 60 101 7.0 9.0 0.00 0.00 0.00 88 1023.8
20240717125121 60 94 5.0 7.0 0.00 0.00 0.00 90 1024.1
20240717124621 60 114 6.0 8.0 0.00 0.00 0.00 90 1024.1
20240717124120 59 97 5.0 6.0 0.00 0.00 0.00 91 1023.7
20240717123619 59 99 8.0 9.0 0.00 0.00 0.00 91 1023.7
20240717123118 59 112 6.0 7.0 0.00 0.00 0.00 92 1023.7
20240717122617 58 122 7.0 8.0 0.00 0.00 0.00 92 1023.7
20240717122115 58 129 5.0 6.0 0.00 0.00 0.00 93 1023.6
20240717121613 58 124 5.0 7.0 0.00 0.00 0.00 93 1023.6
20240717121112 58 91 7.0 9.0 0.00 0.00 0.00 93 1023.6
20240717120611 58 88 5.0 6.0 0.00 0.00 0.00 94 1023.6
20240717120109 58 55 5.0 7.0 0.00 0.00 0.00 94 1023.4
20240717115609 58 116 7.0 8.0 0.00 0.00 0.00 94 1023.3
20240717115107 58 112 6.0 7.0 0.00 0.00 0.00 94 1023.3
20240717114606 58 77 7.0 9.0 0.00 0.00 0.00 94 1023.3
20240717114105 58 86 5.0 6.0 0.00 0.00 0.00 94 1023.2
20240717113604 57 77 7.0 9.0 0.00 0.00 0.00 94 1023.2
20240717113104 57 122 5.0 8.0 0.00 0.00 0.00 94 1022.8
20240717112602 58 112 7.0 9.0 0.00 0.00 0.00 94 1022.8
20240717112101 58 93 7.0 9.0 0.00 0.00 0.00 94 1022.9
20240717111600 58 96 7.0 10.0 0.00 0.00 0.00 94 1023.0
20240717111058 58 96 7.0 8.0 0.00 0.00 0.00 94 1022.8
20240717110556 58 96 7.0 8.0 0.00 0.00 0.00 94 1022.7
20240717110054 57 81 7.0 9.0 0.00 0.00 0.00 94 1022.6
20240717105551 58 82 4.0 5.0 0.00 0.00 0.00 94 1022.6
20240717105050 58 85 7.0 9.0 0.00 0.00 0.00 94 1022.6
20240717104549 58 78 6.0 8.0 0.00 0.00 0.00 94 1022.5
20240717104048 58 82 7.0 8.0 0.00 0.00 0.00 94 1022.7
20240717103547 58 81 4.0 7.0 0.00 0.00 0.00 94 1022.8
20240717103046 59 97 6.0 7.0 0.00 0.00 0.00 94 1022.4
20240717102545 58 83 6.0 8.0 0.00 0.00 0.00 94 1022.4
20240717102043 58 68 4.0 5.0 0.00 0.00 0.00 94 1022.5
20240717101542 58 66 4.0 5.0 0.00 0.00 0.00 94 1022.3
20240717101041 58 66 4.0 7.0 0.00 0.00 0.00 93 1022.3
20240717100540 58 67 5.0 6.0 0.00 0.00 0.00 93 1022.0
20240717100038 59 78 5.0 7.0 0.00 0.00 0.00 93 1022.0
20240717095535 59 93 5.0 6.0 0.00 0.00 0.00 93 1022.2
20240717095034 59 124 4.0 5.0 0.00 0.00 0.00 93 1021.8
20240717094533 59 78 4.0 5.0 0.00 0.00 0.00 93 1021.7
20240717094032 59 79 2.0 3.0 0.00 0.00 0.00 93 1022.0
20240717093531 59 85 4.0 6.0 0.00 0.00 0.00 94 1022.0
20240717093029 59 80 3.0 3.0 0.00 0.00 0.00 94 1021.8
20240717092528 58 89 3.0 3.0 0.00 0.00 0.00 94 1021.7
20240717092026 58 73 3.0 3.0 0.00 0.00 0.00 94 1021.8
20240717091525 58 79 3.0 3.0 0.00 0.00 0.00 94 1021.8
20240717091024 59 78 3.0 3.0 0.00 0.00 0.00 94 1021.6
20240717090523 58 65 3.0 3.0 0.00 0.00 0.00 94 1021.8
20240717090021 58 67 3.0 3.0 0.00 0.00 0.00 94 1022.0
20240717085517 58 68 3.0 5.0 0.00 0.00 0.00 94 1021.8
20240717085017 58 68 3.0 3.0 0.00 0.00 0.00 94 1021.9
20240717084516 58 70 3.0 3.0 0.00 0.00 0.00 94 1022.0
20240717084013 58 79 3.0 3.0 0.00 0.00 0.00 94 1021.9
20240717083511 58 59 3.0 3.0 0.00 0.00 0.00 94 1021.8
20240717083009 58 52 5.0 6.0 0.00 0.00 0.00 94 1021.7
20240717082508 58 62 3.0 3.0 0.00 0.00 0.00 94 1021.9
20240717082007 59 75 2.0 3.0 0.00 0.00 0.00 94 1021.8
20240717081504 59 64 2.0 2.0 0.00 0.00 0.00 94 1021.5
20240717081003 59 67 4.0 5.0 0.00 0.00 0.00 94 1021.7
20240717080501 58 57 3.0 3.0 0.00 0.00 0.00 94 1021.6
20240717080001 58 55 1.0 2.0 0.00 0.00 0.00 93 1021.8
20240717075500 59 70 0.0 1.0 0.00 0.00 0.00 93 1021.7
20240717074959 59 72 1.0 1.0 0.00 0.00 0.00 92 1021.6
20240717074457 59 126 1.0 1.0 0.00 0.00 0.00 92 1021.6
20240717073956 60 89 2.0 3.0 0.00 0.00 0.00 92 1021.7
20240717073454 59 77 2.0 2.0 0.00 0.00 0.00 92 1021.3
20240717072953 60 86 1.0 1.0 0.00 0.00 0.00 92 1021.5
20240717072451 60 87 3.0 3.0 0.00 0.00 0.00 91 1021.3
20240717071950 60 87 1.0 1.0 0.00 0.00 0.00 91 1021.7
20240717071448 60 73 1.0 1.0 0.00 0.00 0.00 91 1021.4
20240717070946 60 69 3.0 3.0 0.00 0.00 0.00 91 1021.5
20240717070444 60 91 3.0 3.0 0.00 0.00 0.00 91 1021.5
20240717065943 60 60 4.0 5.0 0.00 0.00 0.00 90 1021.4
20240717065442 60 64 4.0 6.0 0.00 0.00 0.00 90 1021.1
20240717064941 60 92 4.0 5.0 0.00 0.00 0.00 90 1021.3
20240717064439 60 83 4.0 5.0 0.00 0.00 0.00 91 1021.2
20240717063936 60 77 5.0 6.0 0.00 0.00 0.00 90 1021.1
20240717063434 60 73 4.0 5.0 0.00 0.00 0.00 90 1021.2
20240717062933 60 101 3.0 3.0 0.00 0.00 0.00 90 1021.1
20240717062433 60 88 5.0 6.0 0.00 0.00 0.00 89 1021.0
20240717061932 60 107 5.0 5.0 0.00 0.00 0.00 89 1021.2
20240717061432 61 82 3.0 3.0 0.00 0.00 0.00 89 1021.0
20240717060931 61 112 5.0 6.0 0.00 0.00 0.00 88 1021.2
20240717060429 61 97 4.0 5.0 0.00 0.00 0.00 87 1021.1
20240717055928 61 103 5.0 6.0 0.00 0.00 0.00 87 1021.1
20240717055427 62 73 3.0 5.0 0.00 0.00 0.00 86 1020.9
20240717054924 62 84 5.0 6.0 0.00 0.00 0.00 86 1020.7
20240717054422 62 94 4.0 5.0 0.00 0.00 0.00 86 1020.8
20240717053921 61 126 3.0 3.0 0.00 0.00 0.00 86 1020.9
20240717051458 63 104 4.0 5.0 0.00 0.00 0.00 82 1020.3
20240717050957 63 104 4.0 5.0 0.00 0.00 0.00 82 1020.3
20240717050455 63 91 5.0 6.0 0.00 0.00 0.00 82 1020.4
20240717045954 62 76 3.0 3.0 0.00 0.02 0.02 82 1020.6
20240717045451 62 74 3.0 3.0 0.00 0.02 0.02 81 1020.4
20240717044951 63 75 3.0 5.0 0.00 0.02 0.02 80 1020.8
20240717044450 64 74 3.0 3.0 0.00 0.02 0.02 78 1020.3
20240717043947 64 64 3.0 5.0 0.00 0.02 0.02 76 1020.4
20240717043445 65 56 5.0 6.0 0.00 0.02 0.02 74 1020.1
20240717042944 65 64 4.0 6.0 0.00 0.02 0.02 73 1020.0
20240717042443 66 59 3.0 3.0 0.00 0.02 0.02 72 1020.3
20240717041942 66 58 3.0 3.0 0.00 0.02 0.02 72 1020.1
20240717041440 66 57 3.0 3.0 0.00 0.02 0.02 72 1020.1
20240717040940 66 70 3.0 3.0 0.00 0.02 0.02 72 1019.9
20240717040439 66 43 3.0 3.0 0.00 0.02 0.02 72 1019.8
20240717035938 66 60 2.0 2.0 0.00 0.02 0.02 72 1019.9
20240717035437 66 60 2.0 2.0 0.00 0.02 0.02 72 1019.8
20240717034936 66 51 2.0 2.0 0.00 0.02 0.02 72 1019.7
20240717034435 66 48 2.0 2.0 0.00 0.02 0.02 72 1019.8
20240717033934 67 64 2.0 2.0 0.00 0.02 0.02 72 1019.7
20240717033433 67 48 3.0 3.0 0.00 0.02 0.02 71 1020.0
20240717032933 67 53 3.0 3.0 0.00 0.02 0.02 71 1019.8
20240717032433 68 51 3.0 3.0 0.00 0.02 0.02 70 1019.5
20240717031931 67 54 3.0 3.0 0.00 0.02 0.02 71 1019.7
20240717031430 68 56 2.0 2.0 0.00 0.02 0.02 71 1019.6
20240717030930 68 65 2.0 2.0 0.00 0.02 0.02 70 1019.5
20240717030428 68 51 3.0 3.0 0.00 0.02 0.02 69 1019.4
20240717025928 68 52 3.0 3.0 0.00 0.02 0.02 68 1019.2
20240717025425 68 50 2.0 2.0 0.00 0.02 0.02 69 1019.3
20240717024924 69 60 2.0 2.0 0.00 0.02 0.02 68 1019.1
20240717024422 69 49 3.0 3.0 0.00 0.02 0.02 67 1019.2
20240717023920 69 42 3.0 3.0 0.00 0.02 0.02 67 1019.1
20240717023418 68 52 2.0 2.0 0.00 0.02 0.02 67 1019.0
20240717022917 69 56 1.0 1.0 0.00 0.02 0.02 66 1019.0
20240717022416 69 53 1.0 1.0 0.00 0.02 0.02 66 1019.0
20240717021914 70 62 1.0 1.0 0.00 0.02 0.02 66 1019.0
20240717021414 70 31 1.0 1.0 0.00 0.02 0.02 65 1018.8
20240717020912 70 46 1.0 1.0 0.00 0.02 0.02 64 1019.1
20240717020411 71 31 1.0 1.0 0.00 0.02 0.02 65 1018.7
20240717015910 71 47 1.0 1.0 0.00 0.02 0.02 65 1018.7
20240717015408 71 47 1.0 2.0 0.00 0.02 0.02 64 1018.8
20240717014905 72 56 1.0 1.0 0.00 0.02 0.02 64 1018.9
20240717014402 72 48 2.0 2.0 0.00 0.02 0.02 63 1018.6
20240717013859 73 13 3.0 3.0 0.00 0.02 0.02 61 1018.8
20240717013358 73 13 1.0 1.0 0.00 0.02 0.02 62 1018.7
20240717012855 74 35 1.0 1.0 0.00 0.02 0.02 60 1018.5
20240717012353 74 46 1.0 1.0 0.00 0.02 0.02 61 1018.6
20240717011853 74 31 1.0 1.0 0.00 0.02 0.02 61 1018.8
20240717011353 74 11 1.0 2.0 0.00 0.02 0.02 61 1018.6
20240717010852 75 2 2.0 3.0 0.00 0.02 0.02 60 1018.8
20240717010350 75 44 2.0 2.0 0.00 0.02 0.02 60 1018.7
20240717005848 75 59 2.0 2.0 0.00 0.02 0.02 59 1018.8
20240717005348 75 2 3.0 5.0 0.00 0.02 0.02 58 1018.2
20240717004846 75 346 2.0 3.0 0.00 0.02 0.02 59 1018.6
20240717004346 75 20 3.0 3.0 0.00 0.02 0.02 58 1018.6
20240717003843 75 12 5.0 6.0 0.00 0.02 0.02 57 1018.2
20240717003343 75 18 7.0 8.0 0.00 0.02 0.02 56 1018.5
20240717002841 76 20 8.0 9.0 0.00 0.02 0.02 55 1018.5
20240717002340 76 344 3.0 5.0 0.00 0.02 0.02 56 1018.3
20240717001838 76 358 7.0 9.0 0.00 0.02 0.02 54 1018.3
20240717001336 76 36 3.0 3.0 0.00 0.02 0.02 57 1018.6
20240717000836 76 353 5.0 6.0 0.00 0.02 0.02 56 1018.6
20240717000335 77 349 8.0 10.0 0.00 0.02 0.02 55 1018.5
20240716235834 77 5 8.0 9.0 0.00 0.02 0.02 53 1018.5